Portada
METAR-TAF:

METAR-TAF

Aeroports :

Yaoundé, Camerun

latitud: 03-50N, longitud: 011-31E, altitud: 751 m

Observació

L'informe es va fer fa 1 hora i 6 minuts, a les 14:00 UTC
Vent 1 kt amb direcció variable
Temperatura 33°C
Humitat 44%
Pressió 1011 hPa
Visibilitat: 6000 m
Cel ennuvolat a una alçada de 2000 ft
Escasses núvols a una alçada de 2300 ft, Cumulonimbus.

METAR: FKYS 081400Z VRB01KT 6000 BKN020 FEW023CB 33/19 Q1011 NOSIG

Hora: 16:06 (15:06 UTC)

Pronòstic

L'informe es va fer fa 4 hores i 6 minuts, a les 11:00 UTC
Pronòstic vàlid del 08 a les 12 UTC al 09 a les 12 UTC
Vent 3 kt del Sud/Sud-Oest
Visibilitat: 6000 m
Cel ennuvolat a una alçada de 1600 ft
Evolucionant progressivament
l' 08 a les 21 UTC al 08 a les 23 UTC
Cel ennuvolat a una alçada de 600 ft
Evolucionant progressivament
l' 09 a les 06 UTC al 09 a les 10 UTC
Núvols disperses a una alçada de 2000 ft

TAF: FKYS 081100Z 0812/0912 21003KT 6000 BKN016 BECMG 0821/0823 BKN006 BECMG 0906/0910 SCT020

Observacions i pronòstics meteorològics de més de 4000 aeroports (METAR i TAF).

Les estacions disponibles són els punts grocs i vermells al mapa.

Posi el ratolí al punt desitjat per veure el nom de l'estació.

Feu clic per veure les observacions i els pronòstics meteorològics.

Per canviar el mapa: feu clic els botons verds amb una creu de color negre per apropar; al botó verd amb un guió per allunyar la imatge; o en les fletxes verdes per a mapes adjacents.


METAR-TAF: